Flight Information

DEPARTURE
MONTEREY, CA
Elevation:
256
Runways:
10L/28R - 3503x60 - ASPH-F
10R/28L - 7175x150 - ASPH-G
Active PE Departure:
10L - 10R
Current PE ATIS:
T
Altimeter:
30.04
Remarks:
V F R DEPARTURES CONTACT CLEARANCE DELIVERY, ADVISE ON COURSE HEADING, ALTITUDE, AND IF FLIGHT FOLLOWING IS REQUESTED.
ATIS:
119.25 831-375-7433
Clearance Delivery:
135.45
Ground:
120.875
Tower:
MONTEREY TOWER 118.4
DESTINATION
,
Elevation:
TPA:
1000 (est.)


6903.6 NM70° True-15° Var54° HDG

Flight Plan:
(click to file on line)

1. Type
2. Aircraft Identification
3. Aircraft Type / Special Equipment
4. True Airspeed
kts
5. Departure Airport
(ICAO code)
6. Arriving Airport
(ICAO code)
7. Cruising Altitude
ft
8. Alternate Airport
(ICAO code)
9. Route of Flight
10. Remarks


00:00:00 Departure ATIS: Destination ATIS:

Clearance Limit:
Route:
Altitude: Expect in minutes
Frequency:
Transponder: (7500 Hijack / 7600 Lost Comms / 7700 Emergency)


KMRY 101619Z 29004KT 2SM HZ OVC003 14/11 A3004 RMK AO2 T01390111 $
Time: 2020-07-10T16:19:00Z
1594398740
Winds: 290 @ 4 kts
Visibility: 2.0 sm
Clouds (AGL): OVC 300
Temperature: 13.9 C
Dew Point: 11.1 C
Pressure: 30.041338 in Hgbr


Notes:

Data extracted from FAA Digital Chart Supplement. Effective: 0901Z Thursday, May 21, 2020 to 0901Z Thursday, Jul 16, 2020
Current ATIS data is provided courtisy of PilotEdge.